Time;durP1;ratioP1;P1;durP2;ratioP2;P2;SDS_P1;SDS_P2;PMS_P1;PMS_P2;Temp;Humidity;BMP_temperature;BMP_pressure;BME280_temperature;BME280_humidity;BME280_pressure;Samples;Min_cycle;Max_cycle;Signal;HPM_P1;HPM_P2
2021/11/27 00:01:04;;;;;;;;;;;;;;;1.00;100.00;98509.59;5091115;28;19932;-69
2021/11/27 00:03:30;;;;;;;;;;;;;;;0.98;100.00;98508.84;5091225;28;19985;-68
2021/11/27 00:05:57;;;;;;;;;;;;;;;0.98;100.00;98508.00;5091053;28;20028;-70
2021/11/27 00:08:23;;;;;;;;;;;;;;;0.96;100.00;98510.81;5091182;28;20048;-70
2021/11/27 00:10:51;;;;;;;;;;;;;;;0.95;100.00;98500.22;5093845;28;20048;-70
2021/11/27 00:13:19;;;;;;;;;;;;;;;0.96;100.00;98509.94;5094631;28;20362;-70
2021/11/27 00:15:48;;;;;;;;;;;;;;;0.95;100.00;98503.75;5094542;28;19964;-70
2021/11/27 00:18:16;;;;;;;;;;;;;;;0.97;100.00;98500.97;5094519;28;20052;-70
2021/11/27 00:20:44;;;;;;;;;;;;;;;0.97;100.00;98499.13;5094696;28;19936;-70
2021/11/27 00:23:11;;;;;;;;;;;;;;;0.99;100.00;98496.38;5094597;28;19979;-70
2021/11/27 00:25:37;;;;;;;;;;;;;;;0.98;100.00;98492.81;5094420;28;20150;-70
2021/11/27 00:28:04;;;;;;;;;;;;;;;0.99;100.00;98493.69;5076625;28;20342;-70
2021/11/27 00:30:32;;;;;;;;;;;;;;;0.96;100.00;98493.91;5093036;28;20002;-70
2021/11/27 00:32:59;;;;;;;;;;;;;;;0.98;100.00;98495.50;5094554;28;20371;-70
2021/11/27 00:35:25;;;;;;;;;;;;;;;0.96;100.00;98493.91;5093993;28;19943;-70
2021/11/27 00:37:54;;;;;;;;;;;;;;;0.98;100.00;98491.97;5094440;28;20031;-70
2021/11/27 00:40:20;;;;;;;;;;;;;;;0.96;100.00;98489.44;5094309;28;20027;-70
2021/11/27 00:42:47;;;;;;;;;;;;;;;0.96;100.00;98485.88;5094144;28;19958;-70
2021/11/27 00:45:14;;;;;;;;;;;;;;;0.97;100.00;98490.28;5076079;28;20347;-70
2021/11/27 00:47:43;;;;;;;;;;;;;;;0.95;100.00;98484.19;5093961;28;19973;-70
2021/11/27 00:50:10;;;;;;;;;;;;;;;0.96;100.00;98480.53;5094144;28;20046;-70
2021/11/27 00:52:36;;;;;;;;;;;;;;;1.00;100.00;98484.69;5093898;28;19967;-70
2021/11/27 00:55:03;;;;;;;;;;;;;;;1.02;100.00;98480.09;5075855;28;19976;-70
2021/11/27 00:57:30;;;;;;;;;;;;;;;1.01;100.00;98475.69;5075530;28;20389;-70
2021/11/27 00:59:57;;;;;;;;;;;;;;;1.01;100.00;98473.03;5075867;28;20028;-70
2021/11/27 01:02:23;;;;;;;;;;;;;;;1.02;100.00;98468.53;5076033;28;19962;-69
2021/11/27 01:05:01;;;;;;;;;;;;;;;1.04;100.00;98470.09;5075568;28;19941;-69
2021/11/27 01:07:27;;;;;;;;;;;;;;;1.07;100.00;98466.34;5092533;28;20357;-69
2021/11/27 01:09:54;;;;;;;;;;;;;;;1.06;100.00;98473.53;5075432;28;19947;-69
2021/11/27 01:12:20;;;;;;;;;;;;;;;1.06;100.00;98476.19;5075734;28;19925;-69
2021/11/27 01:14:46;;;;;;;;;;;;;;;1.05;100.00;98474.50;5075537;28;20005;-69
2021/11/27 01:17:13;;;;;;;;;;;;;;;1.08;100.00;98476.06;5075260;28;19967;-69
2021/11/27 01:19:41;;;;;;;;;;;;;;;1.07;100.00;98475.25;5075590;28;20067;-68
2021/11/27 01:22:10;;;;;;;;;;;;;;;1.06;100.00;98476.19;5074551;28;19963;-70
2021/11/27 01:24:37;;;;;;;;;;;;;;;1.02;100.00;98482.75;5093392;28;19944;-69
2021/11/27 01:27:03;;;;;;;;;;;;;;;0.99;100.00;98477.66;5093155;28;20083;-69
2021/11/27 01:29:30;;;;;;;;;;;;;;;0.97;100.00;98476.91;5094451;28;20053;-69
2021/11/27 01:31:57;;;;;;;;;;;;;;;0.96;100.00;98473.41;5092768;28;19941;-69
2021/11/27 01:34:23;;;;;;;;;;;;;;;0.93;100.00;98480.78;5093580;28;19938;-69
2021/11/27 01:36:49;;;;;;;;;;;;;;;0.89;100.00;98472.16;5075457;28;19942;-69
2021/11/27 01:39:17;;;;;;;;;;;;;;;0.87;100.00;98465.22;5074985;28;19995;-69
2021/11/27 01:41:44;;;;;;;;;;;;;;;0.86;100.00;98466.22;5074989;28;20015;-69
2021/11/27 01:44:11;;;;;;;;;;;;;;;0.86;100.00;98463.53;5092870;28;19924;-69
2021/11/27 01:46:39;;;;;;;;;;;;;;;0.87;100.00;98465.22;5074734;28;20311;-69
2021/11/27 01:49:06;;;;;;;;;;;;;;;0.82;100.00;98457.59;5074822;28;19932;-69
2021/11/27 01:51:33;;;;;;;;;;;;;;;0.78;100.00;98464.13;5092840;28;19954;-69
2021/11/27 01:54:05;;;;;;;;;;;;;;;0.77;100.00;98459.75;5074832;28;19925;-70
2021/11/27 01:56:35;;;;;;;;;;;;;;;0.78;100.00;98458.78;5074549;28;19945;-68
2021/11/27 01:59:06;;;;;;;;;;;;;;;0.76;100.00;98453.56;5091771;28;19967;-69
2021/11/27 02:01:35;;;;;;;;;;;;;;;0.78;100.00;98456.97;5074438;28;19943;-69
2021/11/27 02:04:02;;;;;;;;;;;;;;;0.79;100.00;98449.81;5091625;28;20001;-69
2021/11/27 02:06:33;;;;;;;;;;;;;;;0.79;100.00;98447.97;5092425;28;19924;-69
2021/11/27 02:09:01;;;;;;;;;;;;;;;0.74;100.00;98451.97;5091435;28;19924;-68
2021/11/27 02:11:36;;;;;;;;;;;;;;;0.72;100.00;98451.25;5074344;28;20044;-69
2021/11/27 02:14:03;;;;;;;;;;;;;;;0.72;100.00;98448.56;5074359;28;20092;-70
2021/11/27 02:16:33;;;;;;;;;;;;;;;0.66;100.00;98452.56;5074271;28;20283;-69
2021/11/27 02:18:59;;;;;;;;;;;;;;;0.63;100.00;98447.47;5074118;28;20060;-69
2021/11/27 02:21:27;;;;;;;;;;;;;;;0.62;100.00;98443.09;5074363;28;19928;-70
2021/11/27 02:23:54;;;;;;;;;;;;;;;0.62;100.00;98443.09;5074216;28;19939;-70
2021/11/27 02:26:22;;;;;;;;;;;;;;;0.62;100.00;98440.41;5074069;28;19985;-69
2021/11/27 02:28:50;;;;;;;;;;;;;;;0.63;100.00;98442.13;5090994;28;20950;-70
2021/11/27 02:31:17;;;;;;;;;;;;;;;0.60;100.00;98437.00;5074116;28;20445;-70
2021/11/27 02:33:44;;;;;;;;;;;;;;;0.58;100.00;98437.13;5057348;28;20311;-70
2021/11/27 02:36:11;;;;;;;;;;;;;;;0.55;100.00;98436.50;5090779;28;20241;-70
2021/11/27 02:38:38;;;;;;;;;;;;;;;0.52;100.00;98434.06;5074077;28;19966;-70
2021/11/27 02:41:06;;;;;;;;;;;;;;;0.46;100.00;98427.38;5073794;28;19985;-70
2021/11/27 02:43:32;;;;;;;;;;;;;;;0.42;100.00;98428.59;5073984;28;19924;-69
2021/11/27 02:45:59;;;;;;;;;;;;;;;0.41;100.00;98430.38;5092019;28;20385;-69
2021/11/27 02:48:25;;;;;;;;;;;;;;;0.43;100.00;98430.31;5091934;28;19928;-69
2021/11/27 02:50:52;;;;;;;;;;;;;;;0.47;100.00;98431.78;5092097;28;20014;-70
2021/11/27 02:53:18;;;;;;;;;;;;;;;0.49;100.00;98427.16;5092055;28;20040;-69
2021/11/27 02:55:46;;;;;;;;;;;;;;;0.50;100.00;98423.50;5091498;28;19974;-69
2021/11/27 02:58:13;;;;;;;;;;;;;;;0.50;100.00;98412.84;5091223;28;19997;-69
2021/11/27 03:00:41;;;;;;;;;;;;;;;0.49;100.00;98412.00;5073787;28;19946;-69
2021/11/27 03:03:08;;;;;;;;;;;;;;;0.47;100.00;98418.41;5074082;28;20321;-69
2021/11/27 03:05:34;;;;;;;;;;;;;;;0.44;100.00;98418.63;5073579;28;19937;-70
2021/11/27 03:08:00;;;;;;;;;;;;;;;0.40;100.00;98419.84;5090611;28;20385;-70
2021/11/27 03:10:27;;;;;;;;;;;;;;;0.36;100.00;98421.03;5071984;28;19966;-70
2021/11/27 03:12:55;;;;;;;;;;;;;;;0.31;100.00;98424.06;5072135;28;20040;-70
2021/11/27 03:15:21;;;;;;;;;;;;;;;0.27;100.00;98427.94;5071947;28;20057;-70
2021/11/27 03:17:48;;;;;;;;;;;;;;;0.25;100.00;98420.03;5089950;28;19978;-70
2021/11/27 03:20:16;;;;;;;;;;;;;;;0.22;100.00;98422.09;5071908;28;19969;-70
2021/11/27 03:22:43;;;;;;;;;;;;;;;0.18;100.00;98417.97;5071939;28;20006;-70
2021/11/27 03:25:10;;;;;;;;;;;;;;;0.09;100.00;98431.00;5073548;28;20015;-70
2021/11/27 03:27:37;;;;;;;;;;;;;;;0.03;100.00;98425.25;5073508;28;19938;-69
2021/11/27 03:30:08;;;;;;;;;;;;;;;0.01;100.00;98433.38;5073539;28;20375;-69
2021/11/27 03:32:35;;;;;;;;;;;;;;;0.02;100.00;98429.75;5090222;28;20331;-69
2021/11/27 03:35:10;;;;;;;;;;;;;;;0.05;100.00;98428.69;5073462;28;20401;-69
2021/11/27 03:37:44;;;;;;;;;;;;;;;0.07;100.00;98432.94;5073268;28;20417;-69
2021/11/27 03:40:13;;;;;;;;;;;;;;;0.14;100.00;98422.66;5073376;28;19931;-70
2021/11/27 03:42:40;;;;;;;;;;;;;;;0.20;100.00;98416.00;5090265;28;20021;-70
2021/11/27 03:45:10;;;;;;;;;;;;;;;0.24;100.00;98407.66;5075025;28;19973;-70
2021/11/27 03:47:37;;;;;;;;;;;;;;;0.27;100.00;98407.44;5077220;28;19978;-70
2021/11/27 03:50:05;;;;;;;;;;;;;;;0.27;100.00;98411.94;5077200;28;19986;-70
2021/11/27 03:52:32;;;;;;;;;;;;;;;0.26;100.00;98413.72;5095092;28;19924;-70
2021/11/27 03:54:59;;;;;;;;;;;;;;;0.29;100.00;98423.31;5076893;28;19937;-70
2021/11/27 03:57:26;;;;;;;;;;;;;;;0.29;100.00;98423.31;5077004;28;20458;-70
2021/11/27 03:59:52;;;;;;;;;;;;;;;0.30;100.00;98425.88;5095197;28;20197;-70
2021/11/27 04:02:20;;;;;;;;;;;;;;;0.30;100.00;98419.69;5076931;28;19978;-70
2021/11/27 04:04:47;;;;;;;;;;;;;;;0.26;100.00;98421.72;5093866;28;20012;-70
2021/11/27 04:07:13;;;;;;;;;;;;;;;0.22;100.00;98422.94;5076544;28;20389;-70
2021/11/27 04:09:42;;;;;;;;;;;;;;;0.18;100.00;98418.78;5076611;28;19966;-69
2021/11/27 04:12:09;;;;;;;;;;;;;;;0.11;100.00;98417.56;5077300;28;19996;-68
2021/11/27 04:14:43;;;;;;;;;;;;;;;0.04;100.00;98426.97;5076730;28;19954;-70
2021/11/27 04:17:10;;;;;;;;;;;;;;;0.01;100.00;98430.72;5076472;28;19960;-68
2021/11/27 04:19:37;;;;;;;;;;;;;;;-0.02;100.00;98425.63;5076573;28;19954;-69
2021/11/27 04:22:04;;;;;;;;;;;;;;;-0.09;100.00;98433.22;5076714;28;20431;-68
2021/11/27 04:24:32;;;;;;;;;;;;;;;-0.13;100.00;98425.53;5093336;28;19993;-68
2021/11/27 04:26:59;;;;;;;;;;;;;;;-0.18;100.00;98433.91;5076453;28;19966;-70
2021/11/27 04:29:25;;;;;;;;;;;;;;;-0.20;100.00;98431.34;5076286;28;19924;-70
2021/11/27 04:31:52;;;;;;;;;;;;;;;-0.26;100.00;98433.63;5094480;28;20024;-68
2021/11/27 04:34:18;;;;;;;;;;;;;;;-0.32;100.00;98424.25;5076529;28;20355;-70
2021/11/27 04:36:46;;;;;;;;;;;;;;;-0.35;100.00;98427.13;5076042;28;20412;-70
2021/11/27 04:39:14;;;;;;;;;;;;;;;-0.33;100.00;98435.88;5076262;28;19953;-70
2021/11/27 04:41:41;;;;;;;;;;;;;;;-0.35;100.00;98436.00;5076109;28;20022;-70
2021/11/27 04:44:07;;;;;;;;;;;;;;;-0.35;100.00;98437.78;5076372;28;19967;-69
2021/11/27 04:46:33;;;;;;;;;;;;;;;-0.37;100.00;98435.25;5092600;28;19924;-70
2021/11/27 04:49:02;;;;;;;;;;;;;;;-0.41;100.00;98439.09;5076065;28;20017;-70
2021/11/27 04:51:28;;;;;;;;;;;;;;;-0.45;100.00;98434.09;5075821;28;19965;-70
2021/11/27 04:53:57;;;;;;;;;;;;;;;-0.49;100.00;98436.13;5075932;28;19974;-70
2021/11/27 04:56:23;;;;;;;;;;;;;;;-0.54;100.00;98444.44;5074475;28;19928;-70
2021/11/27 04:58:50;;;;;;;;;;;;;;;-0.51;100.00;98444.25;5093963;28;19962;-70
2021/11/27 05:01:17;;;;;;;;;;;;;;;-0.46;100.00;98441.25;5092857;28;19984;-70
2021/11/27 05:03:51;;;;;;;;;;;;;;;-0.44;100.00;98451.78;5075670;28;20012;-70
2021/11/27 05:06:17;;;;;;;;;;;;;;;-0.43;100.00;98442.84;5093585;28;19924;-70
2021/11/27 05:08:45;;;;;;;;;;;;;;;-0.41;100.00;98441.75;5075709;28;19969;-70
2021/11/27 05:11:13;;;;;;;;;;;;;;;-0.38;100.00;98441.53;5075816;28;19960;-70
2021/11/27 05:13:40;;;;;;;;;;;;;;;-0.33;100.00;98438.53;5075617;28;20009;-70
2021/11/27 05:16:07;;;;;;;;;;;;;;;-0.28;100.00;98436.41;5075628;28;19984;-70
2021/11/27 05:18:33;;;;;;;;;;;;;;;-0.25;100.00;98438.84;5075360;28;20335;-70
2021/11/27 05:21:23;;;;;;;;;;;;;;;-0.20;100.00;98434.03;5093194;28;19941;-70
2021/11/27 05:23:49;;;;;;;;;;;;;;;-0.13;100.00;98438.88;5075442;28;19966;-70
2021/11/27 05:26:31;;;;;;;;;;;;;;;-0.10;100.00;98434.19;5075003;28;20035;-70
2021/11/27 05:29:16;;;;;;;;;;;;;;;-0.07;100.00;98435.78;5075090;28;20386;-70
2021/11/27 05:32:05;;;;;;;;;;;;;;;-0.02;100.00;98438.97;5075178;28;20445;-70
2021/11/27 05:34:36;;;;;;;;;;;;;;;0.03;100.00;98435.94;5075321;28;19944;-70
2021/11/27 05:37:05;;;;;;;;;;;;;;;0.03;100.00;98431.47;5093129;28;19937;-70
2021/11/27 05:39:32;;;;;;;;;;;;;;;0.06;100.00;98436.56;5074911;28;19969;-70
2021/11/27 05:42:00;;;;;;;;;;;;;;;0.07;100.00;98432.09;5093150;28;20481;-70
2021/11/27 05:44:27;;;;;;;;;;;;;;;0.10;100.00;98440.72;5075006;28;19943;-70
2021/11/27 05:46:53;;;;;;;;;;;;;;;0.11;100.00;98446.91;5074918;28;19944;-70
2021/11/27 05:49:20;;;;;;;;;;;;;;;0.12;100.00;98445.91;5074664;28;20007;-69
2021/11/27 05:52:04;;;;;;;;;;;;;;;0.11;100.00;98444.25;5074837;28;19924;-70
2021/11/27 05:54:30;;;;;;;;;;;;;;;0.11;100.00;98446.91;5074824;28;20027;-70
2021/11/27 05:56:57;;;;;;;;;;;;;;;0.13;100.00;98450.31;5092710;28;20001;-70
2021/11/27 05:59:24;;;;;;;;;;;;;;;0.14;100.00;98449.34;5092314;28;19996;-69
2021/11/27 06:01:51;;;;;;;;;;;;;;;0.13;100.00;98455.63;5092570;28;20027;-70
2021/11/27 06:04:17;;;;;;;;;;;;;;;0.12;100.00;98457.47;5091361;28;19939;-70
2021/11/27 06:06:43;;;;;;;;;;;;;;;0.11;100.00;98455.75;5074262;28;19930;-70
2021/11/27 06:09:09;;;;;;;;;;;;;;;0.11;100.00;98455.75;5092319;28;20517;-70
2021/11/27 06:11:36;;;;;;;;;;;;;;;0.10;100.00;98454.03;5092436;28;19961;-70
2021/11/27 06:14:02;;;;;;;;;;;;;;;0.10;100.00;98456.72;5092398;28;20298;-69
2021/11/27 06:16:30;;;;;;;;;;;;;;;0.11;100.00;98462.91;5092329;28;20080;-71
2021/11/27 06:18:56;;;;;;;;;;;;;;;0.11;100.00;98461.09;5074137;28;20380;-69
2021/11/27 06:21:22;;;;;;;;;;;;;;;0.11;100.00;98458.44;5092281;28;20051;-69
2021/11/27 06:23:49;;;;;;;;;;;;;;;0.11;100.00;98455.75;5091964;28;20022;-69
2021/11/27 06:26:15;;;;;;;;;;;;;;;0.08;100.00;98460.47;5092198;28;19940;-69
2021/11/27 06:28:41;;;;;;;;;;;;;;;0.06;100.00;98457.91;5074117;28;20377;-69
2021/11/27 06:31:08;;;;;;;;;;;;;;;0.04;100.00;98459.84;5092082;28;19948;-69
2021/11/27 06:33:36;;;;;;;;;;;;;;;0.01;100.00;98464.56;5092137;28;20379;-69
2021/11/27 06:36:03;;;;;;;;;;;;;;;-0.03;100.00;98467.47;5073785;28;19940;-71
2021/11/27 06:38:30;;;;;;;;;;;;;;;-0.06;100.00;98469.50;5091885;28;20045;-69
2021/11/27 06:40:56;;;;;;;;;;;;;;;-0.09;100.00;98475.06;5092084;28;19951;-70
2021/11/27 06:43:33;;;;;;;;;;;;;;;-0.07;100.00;98478.44;5091781;28;19943;-70
2021/11/27 06:46:05;;;;;;;;;;;;;;;-0.06;100.00;98485.50;5073675;28;19949;-70
2021/11/27 06:48:33;;;;;;;;;;;;;;;-0.04;100.00;98483.56;5091086;28;20047;-70
2021/11/27 06:51:00;;;;;;;;;;;;;;;-0.03;100.00;98485.25;5091328;28;19949;-69
2021/11/27 06:53:27;;;;;;;;;;;;;;;0.00;100.00;98490.41;5091038;28;20427;-70
2021/11/27 06:55:55;;;;;;;;;;;;;;;0.01;100.00;98492.06;5091418;28;20022;-70
2021/11/27 06:58:21;;;;;;;;;;;;;;;0.04;100.00;98497.19;5071740;28;19971;-70
2021/11/27 07:01:08;;;;;;;;;;;;;;;0.10;100.00;98499.41;5050025;28;19945;-70
2021/11/27 07:04:00;;;;;;;;;;;;;;;0.16;100.00;98506.97;5066165;28;19941;-70
2021/11/27 07:06:57;;;;;;;;;;;;;;;0.22;100.00;98508.31;5091276;28;20025;-70
2021/11/27 07:09:40;;;;;;;;;;;;;;;0.31;100.00;98514.81;5073579;28;19932;-70
2021/11/27 07:12:11;;;;;;;;;;;;;;;0.38;100.00;98508.03;5073618;28;20329;-69
2021/11/27 07:14:42;;;;;;;;;;;;;;;0.43;100.00;98511.22;5073304;28;19997;-70
2021/11/27 07:17:08;;;;;;;;;;;;;;;0.47;100.00;98509.19;5091283;28;20030;-70
2021/11/27 07:19:34;;;;;;;;;;;;;;;0.48;100.00;98511.72;5092580;28;19924;-69
2021/11/27 07:22:04;;;;;;;;;;;;;;;0.51;100.00;98516.00;5077710;28;19940;-70
2021/11/27 07:24:30;;;;;;;;;;;;;;;0.52;100.00;98516.84;5076346;28;19983;-70
2021/11/27 07:26:59;;;;;;;;;;;;;;;0.54;100.00;98510.41;5095654;28;19950;-69
2021/11/27 07:29:32;;;;;;;;;;;;;;;0.57;100.00;98522.69;5094243;28;19958;-69
2021/11/27 07:31:58;;;;;;;;;;;;;;;0.59;100.00;98523.41;5095461;28;19969;-70
2021/11/27 07:34:24;;;;;;;;;;;;;;;0.60;100.00;98522.44;5095113;28;20534;-70
2021/11/27 07:36:52;;;;;;;;;;;;;;;0.62;100.00;98518.69;5076029;28;20500;-70
2021/11/27 07:39:19;;;;;;;;;;;;;;;0.68;100.00;98521.88;5095731;28;20052;-70
2021/11/27 07:41:45;;;;;;;;;;;;;;;0.69;100.00;98527.09;5094922;28;20046;-70
2021/11/27 07:44:16;;;;;;;;;;;;;;;0.70;100.00;98526.13;5077734;28;19978;-70
2021/11/27 07:47:01;;;;;;;;;;;;;;;0.70;100.00;98523.47;5094967;28;20106;-70
2021/11/27 07:50:07;;;;;;;;;;;;;;;0.74;100.00;98526.75;4996469;28;19948;-70
2021/11/27 07:52:52;;;;;;;;;;;;;;;0.77;100.00;98523.84;5012815;28;20110;-70
2021/11/27 07:55:19;;;;;;;;;;;;;;;0.81;100.00;98518.16;5061454;28;19986;-70
2021/11/27 07:57:46;;;;;;;;;;;;;;;0.84;100.00;98527.75;5094004;28;20441;-70
2021/11/27 08:00:12;;;;;;;;;;;;;;;0.85;100.00;98528.63;5094988;28;19956;-70
2021/11/27 08:02:42;;;;;;;;;;;;;;;0.82;100.00;98524.34;5093888;28;20417;-70
2021/11/27 08:05:09;;;;;;;;;;;;;;;0.88;100.00;98523.03;5094768;28;19958;-77
2021/11/27 08:07:36;;;;;;;;;;;;;;;0.93;100.00;98521.69;5094868;28;19947;-77
2021/11/27 08:10:03;;;;;;;;;;;;;;;1.00;100.00;98524.75;5094707;28;20306;-77
2021/11/27 08:12:30;;;;;;;;;;;;;;;1.10;100.00;98520.41;5094836;28;20221;-77
2021/11/27 08:14:57;;;;;;;;;;;;;;;1.24;100.00;98523.84;5094783;28;19943;-76
2021/11/27 08:17:23;;;;;;;;;;;;;;;1.38;100.00;98520.06;5094251;28;19938;-76
2021/11/27 08:19:49;;;;;;;;;;;;;;;1.43;100.00;98520.56;5076674;28;20408;-77
2021/11/27 08:22:16;;;;;;;;;;;;;;;1.44;100.00;98524.94;5094637;28;19943;-77
2021/11/27 08:24:42;;;;;;;;;;;;;;;1.46;100.00;98518.50;5094697;28;20010;-75
2021/11/27 08:27:08;;;;;;;;;;;;;;;1.43;100.00;98521.44;5094363;28;19968;-75
2021/11/27 08:29:36;;;;;;;;;;;;;;;1.50;100.00;98522.66;5094595;28;19928;-76
2021/11/27 08:32:02;;;;;;;;;;;;;;;1.58;100.00;98522.06;5093060;28;20405;-76
2021/11/27 08:34:29;;;;;;;;;;;;;;;1.59;100.00;98515.72;5093986;28;20025;-77
2021/11/27 08:36:55;;;;;;;;;;;;;;;1.60;100.00;98513.91;5094060;28;20153;-78
2021/11/27 08:39:21;;;;;;;;;;;;;;;1.65;100.00;98519.75;5094082;28;20373;-77
2021/11/27 08:41:48;;;;;;;;;;;;;;;1.75;100.00;98511.81;5094269;28;19951;-77
2021/11/27 08:44:15;;;;;;;;;;;;;;;1.88;100.00;98511.69;5094254;28;20044;-77
2021/11/27 08:46:42;;;;;;;;;;;;;;;2.08;100.00;98513.59;5093685;28;19951;-77
2021/11/27 08:49:09;;;;;;;;;;;;;;;2.38;100.00;98512.09;5093762;28;19932;-76
2021/11/27 08:51:37;;;;;;;;;;;;;;;2.67;100.00;98503.44;5093693;28;20448;-78
2021/11/27 08:54:04;;;;;;;;;;;;;;;2.62;100.00;98506.50;5094037;28;19946;-77
2021/11/27 08:56:30;;;;;;;;;;;;;;;2.52;100.00;98510.94;5093173;28;20027;-77
2021/11/27 08:58:56;;;;;;;;;;;;;;;2.45;100.00;98515.94;5093938;28;19967;-77
2021/11/27 09:01:23;;;;;;;;;;;;;;;2.41;100.00;98506.47;5092509;28;20039;-76
2021/11/27 09:03:50;;;;;;;;;;;;;;;2.44;100.00;98518.75;5093043;28;20058;-76
2021/11/27 09:06:17;;;;;;;;;;;;;;;2.38;100.00;98514.75;5093429;28;20307;-76
2021/11/27 09:08:43;;;;;;;;;;;;;;;2.30;100.00;98518.06;5093438;28;19990;-76
2021/11/27 09:11:11;;;;;;;;;;;;;;;2.30;100.00;98519.91;5092336;28;19970;-76
2021/11/27 09:13:37;;;;;;;;;;;;;;;2.25;100.00;98514.06;5093267;28;19962;-76
2021/11/27 09:16:04;;;;;;;;;;;;;;;2.31;100.00;98514.41;5093339;28;20052;-76
2021/11/27 09:18:32;;;;;;;;;;;;;;;2.36;100.00;98521.22;5093229;28;20353;-76
2021/11/27 09:21:00;;;;;;;;;;;;;;;2.29;100.00;98520.88;5093228;28;20195;-76
2021/11/27 09:23:26;;;;;;;;;;;;;;;2.35;100.00;98515.00;5093267;28;20033;-76
2021/11/27 09:25:52;;;;;;;;;;;;;;;2.42;100.00;98524.25;5092921;28;19930;-76
2021/11/27 09:28:19;;;;;;;;;;;;;;;2.38;100.00;98521.91;5093260;28;20366;-76
2021/11/27 09:30:45;;;;;;;;;;;;;;;2.36;100.00;98521.22;5093182;28;20061;-76
2021/11/27 09:33:11;;;;;;;;;;;;;;;2.31;100.00;98522.44;5093188;28;20501;-76
2021/11/27 09:35:38;;;;;;;;;;;;;;;2.34;100.00;98524.03;5093026;28;19987;-76
2021/11/27 09:38:06;;;;;;;;;;;;;;;2.38;100.00;98522.78;5093143;28;20336;-76
2021/11/27 09:40:36;;;;;;;;;;;;;;;2.45;100.00;98520.47;5093173;28;19972;-76
2021/11/27 09:43:03;;;;;;;;;;;;;;;2.49;100.00;98520.06;5074082;28;20042;-76
2021/11/27 09:45:29;;;;;;;;;;;;;;;2.48;100.00;98522.88;5092828;28;20041;-76
2021/11/27 09:47:56;;;;;;;;;;;;;;;2.48;100.00;98515.66;5092871;28;19970;-75
2021/11/27 09:50:23;;;;;;;;;;;;;;;2.56;100.00;98522.25;5092766;28;19939;-76
2021/11/27 09:52:50;;;;;;;;;;;;;;;2.65;100.00;98524.16;5092635;28;19931;-76
2021/11/27 09:55:18;;;;;;;;;;;;;;;2.72;100.00;98528.00;5091751;28;19946;-77
2021/11/27 09:57:45;;;;;;;;;;;;;;;2.75;100.00;98526.91;5087667;28;19970;-76
2021/11/27 10:00:12;;;;;;;;;;;;;;;2.71;100.00;98523.63;5080512;28;20041;-76
2021/11/27 10:02:41;;;;;;;;;;;;;;;2.74;100.00;98536.78;5072728;28;19942;-77
2021/11/27 10:05:09;;;;;;;;;;;;;;;2.76;100.00;98531.28;5072197;28;19924;-76
2021/11/27 10:07:36;;;;;;;;;;;;;;;2.75;100.00;98530.41;5072013;28;19925;-77
2021/11/27 10:10:02;;;;;;;;;;;;;;;2.76;100.00;98521.41;5071995;28;20054;-77
2021/11/27 10:12:30;;;;;;;;;;;;;;;2.75;100.00;98530.41;5071708;28;20026;-77
2021/11/27 10:14:56;;;;;;;;;;;;;;;2.77;100.00;98520.44;5072024;28;19924;-76
2021/11/27 10:17:23;;;;;;;;;;;;;;;2.83;100.00;98517.25;5071725;28;20039;-76
2021/11/27 10:19:53;;;;;;;;;;;;;;;2.99;100.00;98521.31;5072341;28;20307;-76
2021/11/27 10:22:21;;;;;;;;;;;;;;;3.05;100.00;98522.59;5072725;28;20058;-76
2021/11/27 10:24:48;;;;;;;;;;;;;;;2.99;100.00;98515.94;5071831;28;19941;-76
2021/11/27 10:27:18;;;;;;;;;;;;;;;2.94;100.00;98510.97;5071978;28;19936;-77
2021/11/27 10:29:55;;;;;;;;;;;;;;;2.92;100.00;98512.09;5071781;28;19983;-76
2021/11/27 10:32:23;;;;;;;;;;;;;;;2.90;100.00;98509.56;5071841;28;20037;-76
2021/11/27 10:34:51;;;;;;;;;;;;;;;2.88;100.00;98516.00;5071561;28;20291;-76
2021/11/27 10:37:23;;;;;;;;;;;;;;;2.85;100.00;98527.84;5071742;28;19947;-77
2021/11/27 10:40:00;;;;;;;;;;;;;;;2.85;100.00;98517.13;5071758;28;19994;-78
2021/11/27 10:42:26;;;;;;;;;;;;;;;2.89;100.00;98517.72;5079715;28;20047;-76
2021/11/27 10:44:54;;;;;;;;;;;;;;;2.90;100.00;98517.59;5091549;28;20505;-76
2021/11/27 10:47:21;;;;;;;;;;;;;;;2.90;100.00;98512.22;5089812;28;20005;-76
2021/11/27 10:49:48;;;;;;;;;;;;;;;2.97;100.00;98516.06;5073188;28;19964;-76
2021/11/27 10:52:15;;;;;;;;;;;;;;;3.01;100.00;98516.66;5091650;28;20366;-76
2021/11/27 10:54:43;;;;;;;;;;;;;;;2.96;100.00;98522.41;5091547;28;20065;-76
2021/11/27 10:57:23;;;;;;;;;;;;;;;2.95;100.00;98520.72;5091638;28;19973;-76
2021/11/27 10:59:49;;;;;;;;;;;;;;;2.93;100.00;98519.16;5091964;28;20051;-76
2021/11/27 11:02:18;;;;;;;;;;;;;;;2.96;100.00;98516.22;5091808;28;20374;-76
2021/11/27 11:04:44;;;;;;;;;;;;;;;2.99;100.00;98521.31;5072420;28;20417;-76
2021/11/27 11:07:16;;;;;;;;;;;;;;;3.00;100.00;98520.31;5091515;28;20061;-75
2021/11/27 11:09:57;;;;;;;;;;;;;;;3.02;100.00;98513.03;5090853;28;20019;-76
2021/11/27 11:12:31;;;;;;;;;;;;;;;3.06;100.00;98510.91;5090708;28;19990;-75
2021/11/27 11:15:06;;;;;;;;;;;;;;;3.01;100.00;98514.00;5069594;28;19991;-75
2021/11/27 11:17:34;;;;;;;;;;;;;;;2.96;100.00;98519.72;5073260;28;20022;-75
2021/11/27 11:20:11;;;;;;;;;;;;;;;2.89;100.00;98518.56;5089248;28;20023;-75
2021/11/27 11:22:37;;;;;;;;;;;;;;;2.96;100.00;98513.53;5091589;28;20429;-75
2021/11/27 11:25:06;;;;;;;;;;;;;;;2.96;100.00;98518.88;5073350;28;20020;-75
2021/11/27 11:27:35;;;;;;;;;;;;;;;3.07;100.00;98524.16;5091236;28;20029;-75
2021/11/27 11:30:04;;;;;;;;;;;;;;;3.12;100.00;98518.44;5091212;28;19950;-75
2021/11/27 11:32:30;;;;;;;;;;;;;;;3.11;100.00;98517.56;5072566;28;19935;-75
2021/11/27 11:35:01;;;;;;;;;;;;;;;3.06;100.00;98518.94;5090637;28;19947;-75
2021/11/27 11:37:27;;;;;;;;;;;;;;;3.05;100.00;98512.75;5091387;28;19963;-75
2021/11/27 11:39:54;;;;;;;;;;;;;;;3.10;100.00;98513.22;5090385;28;19962;-74
2021/11/27 11:42:24;;;;;;;;;;;;;;;3.15;100.00;98511.00;5091265;28;19985;-76
2021/11/27 11:44:51;;;;;;;;;;;;;;;3.23;100.00;98515.66;5090976;28;19948;-77
2021/11/27 11:47:17;;;;;;;;;;;;;;;3.18;100.00;98512.56;5091235;28;20352;-76
2021/11/27 11:49:43;;;;;;;;;;;;;;;3.22;100.00;98521.16;5090525;28;19966;-76
2021/11/27 11:52:18;;;;;;;;;;;;;;;3.14;100.00;98498.56;5090499;28;20008;-77
2021/11/27 11:54:45;;;;;;;;;;;;;;;3.09;100.00;98505.31;5072680;28;19989;-76
2021/11/27 11:57:12;;;;;;;;;;;;;;;3.16;100.00;98499.25;5090901;28;20023;-77
2021/11/27 11:59:40;;;;;;;;;;;;;;;3.09;100.00;98502.63;5090816;28;20018;-76
2021/11/27 12:02:10;;;;;;;;;;;;;;;3.06;100.00;98494.81;5091027;28;19924;-76
2021/11/27 12:04:36;;;;;;;;;;;;;;;3.04;100.00;98494.97;5090597;28;20011;-75
2021/11/27 12:07:08;;;;;;;;;;;;;;;3.06;100.00;98498.38;5093579;28;20109;-76
2021/11/27 12:09:55;;;;;;;;;;;;;;;3.00;100.00;98493.53;5094433;28;20046;-76
2021/11/27 12:12:22;;;;;;;;;;;;;;;3.00;100.00;98504.25;5094368;28;20045;-76
2021/11/27 12:15:06;;;;;;;;;;;;;;;3.03;100.00;98503.13;5093863;28;19999;-75
2021/11/27 12:17:34;;;;;;;;;;;;;;;2.90;100.00;98509.56;5086052;28;20484;-75
2021/11/27 12:20:04;;;;;;;;;;;;;;;2.87;100.00;98515.16;5093765;28;19971;-77
2021/11/27 12:22:36;;;;;;;;;;;;;;;2.91;100.00;98521.09;5092055;28;19931;-76
2021/11/27 12:25:17;;;;;;;;;;;;;;;2.99;100.00;98518.63;5093502;28;21466;-76
2021/11/27 12:28:02;;;;;;;;;;;;;;;2.98;100.00;98523.16;5092612;28;19932;-75
2021/11/27 12:30:30;;;;;;;;;;;;;;;2.93;100.00;98519.16;5094138;28;19942;-75
2021/11/27 12:32:56;;;;;;;;;;;;;;;2.93;100.00;98520.00;5090498;28;20470;-75
2021/11/27 12:35:39;;;;;;;;;;;;;;;2.83;100.00;98519.94;5056424;28;19953;-75
2021/11/27 12:38:20;;;;;;;;;;;;;;;2.80;100.00;98520.16;5085785;28;20017;-76
2021/11/27 12:40:48;;;;;;;;;;;;;;;2.81;100.00;98521.03;5093279;28;20000;-75
2021/11/27 12:43:16;;;;;;;;;;;;;;;2.79;100.00;98533.72;5094024;28;20315;-76
2021/11/27 12:45:43;;;;;;;;;;;;;;;2.78;100.00;98535.53;5094198;28;19967;-76
2021/11/27 12:48:24;;;;;;;;;;;;;;;2.79;100.00;98533.72;5093938;28;20013;-75
2021/11/27 12:51:06;;;;;;;;;;;;;;;2.76;100.00;98542.84;5093265;28;20376;-76
2021/11/27 12:53:32;;;;;;;;;;;;;;;2.77;100.00;98544.56;5093143;28;19928;-76